sensor_id;sensor_type;location;lat;lon;timestamp;pressure;altitude;pressure_sealevel;temperature;humidity
76827;BME280;65788;52.284;20.890;2023-03-04T00:00:06;100076.08;;;18.41;29.59
76827;BME280;65788;52.284;20.890;2023-03-04T00:02:54;100069.64;;;18.35;29.63
76827;BME280;65788;52.284;20.890;2023-03-04T00:05:21;100069.45;;;18.30;29.67
76827;BME280;65788;52.284;20.890;2023-03-04T00:07:48;100068.14;;;18.29;29.66
76827;BME280;65788;52.284;20.890;2023-03-04T00:10:16;100063.73;;;18.26;29.72
76827;BME280;65788;52.284;20.890;2023-03-04T00:12:43;100065.67;;;18.24;29.70
76827;BME280;65788;52.284;20.890;2023-03-04T00:15:10;100064.98;;;18.21;29.75
76827;BME280;65788;52.284;20.890;2023-03-04T00:17:38;100057.96;;;18.15;29.83
76827;BME280;65788;52.284;20.890;2023-03-04T00:20:05;100062.85;;;18.11;29.82
76827;BME280;65788;52.284;20.890;2023-03-04T00:22:35;100057.83;;;18.10;29.82
76827;BME280;65788;52.284;20.890;2023-03-04T00:25:02;100052.67;;;18.08;29.86
76827;BME280;65788;52.284;20.890;2023-03-04T00:27:29;100047.34;;;18.03;29.96
76827;BME280;65788;52.284;20.890;2023-03-04T00:29:56;100041.73;;;18.02;29.96
76827;BME280;65788;52.284;20.890;2023-03-04T00:32:23;100036.52;;;17.98;29.99
76827;BME280;65788;52.284;20.890;2023-03-04T00:34:50;100037.47;;;17.95;30.03
76827;BME280;65788;52.284;20.890;2023-03-04T00:37:17;100026.56;;;17.91;30.06
76827;BME280;65788;52.284;20.890;2023-03-04T00:39:44;100023.36;;;17.91;30.30
76827;BME280;65788;52.284;20.890;2023-03-04T00:42:11;100017.16;;;17.88;30.20
76827;BME280;65788;52.284;20.890;2023-03-04T00:44:38;100011.67;;;17.86;30.25
76827;BME280;65788;52.284;20.890;2023-03-04T00:47:06;100009.54;;;17.87;30.26
76827;BME280;65788;52.284;20.890;2023-03-04T00:49:33;100007.50;;;17.86;30.29
76827;BME280;65788;52.284;20.890;2023-03-04T00:52:00;100005.03;;;17.86;30.27
76827;BME280;65788;52.284;20.890;2023-03-04T00:54:27;100004.23;;;17.84;30.33
76827;BME280;65788;52.284;20.890;2023-03-04T00:56:54;100004.49;;;17.76;30.44
76827;BME280;65788;52.284;20.890;2023-03-04T00:59:22;99998.02;;;17.77;30.32
76827;BME280;65788;52.284;20.890;2023-03-04T01:01:49;99997.64;;;17.73;30.22
76827;BME280;65788;52.284;20.890;2023-03-04T01:04:17;99995.92;;;17.70;30.20
76827;BME280;65788;52.284;20.890;2023-03-04T01:06:44;99989.00;;;17.67;30.33
76827;BME280;65788;52.284;20.890;2023-03-04T01:09:10;99987.00;;;17.67;30.29
76827;BME280;65788;52.284;20.890;2023-03-04T01:11:38;99973.95;;;17.64;30.34
76827;BME280;65788;52.284;20.890;2023-03-04T01:14:05;99967.14;;;17.62;30.23
76827;BME280;65788;52.284;20.890;2023-03-04T01:16:31;99967.59;;;17.61;30.16
76827;BME280;65788;52.284;20.890;2023-03-04T01:18:59;99959.34;;;17.55;30.19
76827;BME280;65788;52.284;20.890;2023-03-04T01:21:26;99952.17;;;17.52;30.19
76827;BME280;65788;52.284;20.890;2023-03-04T01:23:55;99941.70;;;17.52;30.13
76827;BME280;65788;52.284;20.890;2023-03-04T01:26:22;99936.66;;;17.47;29.99
76827;BME280;65788;52.284;20.890;2023-03-04T01:28:50;99923.17;;;17.46;30.08
76827;BME280;65788;52.284;20.890;2023-03-04T01:31:18;99906.48;;;17.43;30.13
76827;BME280;65788;52.284;20.890;2023-03-04T01:33:45;99888.80;;;17.37;30.27
76827;BME280;65788;52.284;20.890;2023-03-04T01:36:12;99879.69;;;17.39;30.30
76827;BME280;65788;52.284;20.890;2023-03-04T01:38:39;99877.18;;;17.37;30.32
76827;BME280;65788;52.284;20.890;2023-03-04T01:41:06;99879.84;;;17.34;30.36
76827;BME280;65788;52.284;20.890;2023-03-04T01:43:34;99877.42;;;17.33;30.36
76827;BME280;65788;52.284;20.890;2023-03-04T01:46:02;99871.95;;;17.29;30.38
76827;BME280;65788;52.284;20.890;2023-03-04T01:48:31;99869.05;;;17.26;30.56
76827;BME280;65788;52.284;20.890;2023-03-04T01:50:59;99871.20;;;17.26;30.39
76827;BME280;65788;52.284;20.890;2023-03-04T01:53:29;99864.80;;;17.23;30.41
76827;BME280;65788;52.284;20.890;2023-03-04T01:56:00;99858.29;;;17.24;30.41
76827;BME280;65788;52.284;20.890;2023-03-04T01:58:28;99846.08;;;17.22;30.41
76827;BME280;65788;52.284;20.890;2023-03-04T02:00:56;99841.83;;;17.22;30.40
76827;BME280;65788;52.284;20.890;2023-03-04T02:03:23;99824.15;;;17.20;30.38
76827;BME280;65788;52.284;20.890;2023-03-04T02:05:51;99818.45;;;17.19;30.41
76827;BME280;65788;52.284;20.890;2023-03-04T02:08:20;99821.26;;;17.19;30.45
76827;BME280;65788;52.284;20.890;2023-03-04T02:10:47;99840.52;;;17.21;30.44
76827;BME280;65788;52.284;20.890;2023-03-04T02:13:15;99831.77;;;17.17;30.50
76827;BME280;65788;52.284;20.890;2023-03-04T02:15:43;99821.86;;;17.17;30.47
76827;BME280;65788;52.284;20.890;2023-03-04T02:23:32;99825.92;;;17.12;30.61
76827;BME280;65788;52.284;20.890;2023-03-04T02:26:08;99825.17;;;17.12;30.61
76827;BME280;65788;52.284;20.890;2023-03-04T02:28:36;99828.65;;;17.12;30.57
76827;BME280;65788;52.284;20.890;2023-03-04T02:31:03;99836.97;;;17.09;30.66
76827;BME280;65788;52.284;20.890;2023-03-04T02:33:30;99837.67;;;17.10;30.67
76827;BME280;65788;52.284;20.890;2023-03-04T02:35:59;99834.70;;;17.11;30.56
76827;BME280;65788;52.284;20.890;2023-03-04T02:38:26;99840.55;;;17.09;30.59
76827;BME280;65788;52.284;20.890;2023-03-04T02:40:53;99832.11;;;17.10;30.57
76827;BME280;65788;52.284;20.890;2023-03-04T02:43:23;99832.01;;;17.07;30.62
76827;BME280;65788;52.284;20.890;2023-03-04T02:45:50;99831.48;;;17.02;30.69
76827;BME280;65788;52.284;20.890;2023-03-04T02:48:21;99829.86;;;17.02;30.73
76827;BME280;65788;52.284;20.890;2023-03-04T02:50:50;99826.24;;;17.02;30.73
76827;BME280;65788;52.284;20.890;2023-03-04T02:53:19;99822.16;;;17.03;30.73
76827;BME280;65788;52.284;20.890;2023-03-04T02:55:46;99822.41;;;17.03;30.72
76827;BME280;65788;52.284;20.890;2023-03-04T02:58:14;99819.37;;;17.00;30.75
76827;BME280;65788;52.284;20.890;2023-03-04T03:00:41;99817.16;;;16.97;30.85
76827;BME280;65788;52.284;20.890;2023-03-04T03:03:11;99816.20;;;16.96;30.86
76827;BME280;65788;52.284;20.890;2023-03-04T03:05:38;99812.78;;;16.98;30.77
76827;BME280;65788;52.284;20.890;2023-03-04T03:08:05;99817.49;;;16.92;30.90
76827;BME280;65788;52.284;20.890;2023-03-04T03:10:34;99816.38;;;16.94;30.92
76827;BME280;65788;52.284;20.890;2023-03-04T03:13:06;99811.05;;;16.97;30.86
76827;BME280;65788;52.284;20.890;2023-03-04T03:15:33;99811.83;;;16.95;30.72
76827;BME280;65788;52.284;20.890;2023-03-04T03:18:01;99809.58;;;16.92;30.95
76827;BME280;65788;52.284;20.890;2023-03-04T03:20:28;99811.31;;;16.93;30.91
76827;BME280;65788;52.284;20.890;2023-03-04T03:22:55;99802.10;;;16.92;30.91
76827;BME280;65788;52.284;20.890;2023-03-04T03:25:22;99796.31;;;16.88;30.98
76827;BME280;65788;52.284;20.890;2023-03-04T03:27:49;99804.77;;;16.87;31.02
76827;BME280;65788;52.284;20.890;2023-03-04T03:30:17;99803.12;;;16.89;30.96
76827;BME280;65788;52.284;20.890;2023-03-04T03:32:44;99800.75;;;16.85;31.03
76827;BME280;65788;52.284;20.890;2023-03-04T03:35:11;99796.74;;;16.87;30.86
76827;BME280;65788;52.284;20.890;2023-03-04T03:37:38;99795.08;;;16.85;31.01
76827;BME280;65788;52.284;20.890;2023-03-04T03:40:06;99796.66;;;16.84;31.07
76827;BME280;65788;52.284;20.890;2023-03-04T03:42:33;99787.13;;;16.85;31.02
76827;BME280;65788;52.284;20.890;2023-03-04T03:45:00;99789.30;;;16.86;31.03
76827;BME280;65788;52.284;20.890;2023-03-04T03:47:28;99788.31;;;16.80;31.22
76827;BME280;65788;52.284;20.890;2023-03-04T03:49:55;99784.05;;;16.74;31.40
76827;BME280;65788;52.284;20.890;2023-03-04T03:52:22;99776.26;;;16.78;31.40
76827;BME280;65788;52.284;20.890;2023-03-04T03:54:50;99779.74;;;16.77;31.50
76827;BME280;65788;52.284;20.890;2023-03-04T03:57:17;99780.45;;;16.79;31.46
76827;BME280;65788;52.284;20.890;2023-03-04T03:59:45;99772.04;;;16.79;31.44
76827;BME280;65788;52.284;20.890;2023-03-04T04:02:12;99771.54;;;16.76;31.46
76827;BME280;65788;52.284;20.890;2023-03-04T04:04:39;99772.06;;;16.75;31.57
76827;BME280;65788;52.284;20.890;2023-03-04T04:07:06;99765.90;;;16.74;31.69
76827;BME280;65788;52.284;20.890;2023-03-04T04:09:34;99767.61;;;16.69;31.66
76827;BME280;65788;52.284;20.890;2023-03-04T04:12:02;99762.76;;;16.71;31.65
76827;BME280;65788;52.284;20.890;2023-03-04T04:14:30;99760.35;;;16.71;31.61
76827;BME280;65788;52.284;20.890;2023-03-04T04:16:57;99757.48;;;16.72;31.62
76827;BME280;65788;52.284;20.890;2023-03-04T04:19:25;99762.44;;;16.70;31.70
76827;BME280;65788;52.284;20.890;2023-03-04T04:21:52;99760.82;;;16.68;31.73
76827;BME280;65788;52.284;20.890;2023-03-04T04:24:19;99758.19;;;16.68;31.76
76827;BME280;65788;52.284;20.890;2023-03-04T04:26:46;99755.42;;;16.68;31.78
76827;BME280;65788;52.284;20.890;2023-03-04T04:29:13;99758.98;;;16.70;31.73
76827;BME280;65788;52.284;20.890;2023-03-04T04:31:41;99757.23;;;16.70;31.72
76827;BME280;65788;52.284;20.890;2023-03-04T04:34:08;99745.17;;;16.68;31.78
76827;BME280;65788;52.284;20.890;2023-03-04T04:36:35;99753.30;;;16.68;31.91
76827;BME280;65788;52.284;20.890;2023-03-04T04:39:02;99749.45;;;16.70;31.97
76827;BME280;65788;52.284;20.890;2023-03-04T04:41:31;99748.96;;;16.68;32.06
76827;BME280;65788;52.284;20.890;2023-03-04T04:44:00;99746.41;;;16.67;32.22
76827;BME280;65788;52.284;20.890;2023-03-04T04:46:27;99743.14;;;16.68;32.28
76827;BME280;65788;52.284;20.890;2023-03-04T04:48:55;99742.82;;;16.66;32.34
76827;BME280;65788;52.284;20.890;2023-03-04T04:51:22;99741.75;;;16.65;32.45
76827;BME280;65788;52.284;20.890;2023-03-04T04:53:50;99741.71;;;16.64;32.52
76827;BME280;65788;52.284;20.890;2023-03-04T04:56:18;99738.25;;;16.67;32.53
76827;BME280;65788;52.284;20.890;2023-03-04T04:58:47;99733.67;;;16.65;32.64
76827;BME280;65788;52.284;20.890;2023-03-04T05:01:14;99737.45;;;16.65;32.67
76827;BME280;65788;52.284;20.890;2023-03-04T05:03:41;99736.55;;;16.68;32.65
76827;BME280;65788;52.284;20.890;2023-03-04T05:06:09;99736.00;;;16.68;32.69
76827;BME280;65788;52.284;20.890;2023-03-04T05:08:36;99735.59;;;16.65;32.77
76827;BME280;65788;52.284;20.890;2023-03-04T05:11:05;99731.84;;;16.67;32.77
76827;BME280;65788;52.284;20.890;2023-03-04T05:13:32;99727.73;;;16.65;32.87
76827;BME280;65788;52.284;20.890;2023-03-04T05:15:59;99728.41;;;16.67;32.86
76827;BME280;65788;52.284;20.890;2023-03-04T05:18:26;99728.23;;;16.67;32.96
76827;BME280;65788;52.284;20.890;2023-03-04T05:20:54;99724.08;;;16.64;33.12
76827;BME280;65788;52.284;20.890;2023-03-04T05:23:22;99727.39;;;16.64;33.23
76827;BME280;65788;52.284;20.890;2023-03-04T05:25:49;99720.42;;;16.72;33.12
76827;BME280;65788;52.284;20.890;2023-03-04T05:28:17;99723.85;;;16.82;32.96
76827;BME280;65788;52.284;20.890;2023-03-04T05:30:44;99720.98;;;16.85;33.03
76827;BME280;65788;52.284;20.890;2023-03-04T05:33:13;99717.23;;;16.87;33.11
76827;BME280;65788;52.284;20.890;2023-03-04T05:35:41;99717.73;;;16.93;33.18
76827;BME280;65788;52.284;20.890;2023-03-04T05:38:09;99715.29;;;16.95;33.17
76827;BME280;65788;52.284;20.890;2023-03-04T05:40:36;99715.38;;;17.01;33.01
76827;BME280;65788;52.284;20.890;2023-03-04T05:43:03;99717.83;;;17.11;32.99
76827;BME280;65788;52.284;20.890;2023-03-04T05:45:31;99720.08;;;17.17;32.88
76827;BME280;65788;52.284;20.890;2023-03-04T05:47:58;99713.55;;;17.24;32.84
76827;BME280;65788;52.284;20.890;2023-03-04T05:50:25;99710.83;;;17.30;32.70
76827;BME280;65788;52.284;20.890;2023-03-04T05:52:52;99708.56;;;17.36;32.61
76827;BME280;65788;52.284;20.890;2023-03-04T05:55:19;99707.48;;;17.43;32.53
76827;BME280;65788;52.284;20.890;2023-03-04T05:57:46;99710.55;;;17.49;32.45
76827;BME280;65788;52.284;20.890;2023-03-04T06:00:15;99706.58;;;17.53;32.36
76827;BME280;65788;52.284;20.890;2023-03-04T06:02:43;99707.05;;;17.59;32.25
76827;BME280;65788;52.284;20.890;2023-03-04T06:05:12;99705.42;;;17.63;32.14
76827;BME280;65788;52.284;20.890;2023-03-04T06:07:39;99703.48;;;17.66;32.08
76827;BME280;65788;52.284;20.890;2023-03-04T06:10:09;99698.69;;;17.72;31.98
76827;BME280;65788;52.284;20.890;2023-03-04T06:12:38;99694.54;;;17.76;31.96
76827;BME280;65788;52.284;20.890;2023-03-04T06:15:06;99691.30;;;17.79;31.91
76827;BME280;65788;52.284;20.890;2023-03-04T06:17:36;99688.06;;;17.83;31.87
76827;BME280;65788;52.284;20.890;2023-03-04T06:20:04;99686.33;;;17.86;31.84
76827;BME280;65788;52.284;20.890;2023-03-04T06:22:33;99686.17;;;17.89;31.81
76827;BME280;65788;52.284;20.890;2023-03-04T06:25:00;99688.15;;;17.93;31.76
76827;BME280;65788;52.284;20.890;2023-03-04T06:27:27;99681.73;;;17.96;31.72
76827;BME280;65788;52.284;20.890;2023-03-04T06:29:55;99684.83;;;17.98;31.68
76827;BME280;65788;52.284;20.890;2023-03-04T06:32:22;99679.25;;;18.01;31.65
76827;BME280;65788;52.284;20.890;2023-03-04T06:34:49;99680.52;;;18.02;31.63
76827;BME280;65788;52.284;20.890;2023-03-04T06:37:16;99676.94;;;18.06;31.57
76827;BME280;65788;52.284;20.890;2023-03-04T06:39:44;99680.48;;;18.08;31.53
76827;BME280;65788;52.284;20.890;2023-03-04T06:42:13;99679.56;;;18.11;31.50
76827;BME280;65788;52.284;20.890;2023-03-04T06:44:41;99680.95;;;18.13;31.46
76827;BME280;65788;52.284;20.890;2023-03-04T06:47:08;99679.71;;;18.16;31.41
76827;BME280;65788;52.284;20.890;2023-03-04T06:49:35;99678.60;;;18.20;31.38
76827;BME280;65788;52.284;20.890;2023-03-04T06:52:02;99679.57;;;18.21;31.42
76827;BME280;65788;52.284;20.890;2023-03-04T06:54:29;99676.32;;;18.21;31.48
76827;BME280;65788;52.284;20.890;2023-03-04T06:56:56;99678.91;;;18.23;31.42
76827;BME280;65788;52.284;20.890;2023-03-04T06:59:23;99676.66;;;18.22;31.35
76827;BME280;65788;52.284;20.890;2023-03-04T07:01:50;99679.47;;;18.19;31.32
76827;BME280;65788;52.284;20.890;2023-03-04T07:04:17;99675.14;;;18.18;31.26
76827;BME280;65788;52.284;20.890;2023-03-04T07:06:44;99678.28;;;18.20;31.17
76827;BME280;65788;52.284;20.890;2023-03-04T07:09:12;99683.60;;;18.22;31.09
76827;BME280;65788;52.284;20.890;2023-03-04T07:11:39;99688.40;;;18.23;31.04
76827;BME280;65788;52.284;20.890;2023-03-04T07:14:06;99687.56;;;18.23;31.02
76827;BME280;65788;52.284;20.890;2023-03-04T07:16:33;99680.39;;;18.24;30.98
76827;BME280;65788;52.284;20.890;2023-03-04T07:19:00;99683.44;;;18.30;30.96
76827;BME280;65788;52.284;20.890;2023-03-04T07:21:27;99679.08;;;18.36;31.99
76827;BME280;65788;52.284;20.890;2023-03-04T07:23:57;99678.95;;;18.39;32.50
76827;BME280;65788;52.284;20.890;2023-03-04T07:26:24;99678.00;;;18.41;32.43
76827;BME280;65788;52.284;20.890;2023-03-04T07:28:51;99675.98;;;18.41;32.36
76827;BME280;65788;52.284;20.890;2023-03-04T07:31:24;99671.93;;;18.42;32.30
76827;BME280;65788;52.284;20.890;2023-03-04T07:33:58;99678.58;;;18.45;32.25
76827;BME280;65788;52.284;20.890;2023-03-04T07:36:26;99675.80;;;18.49;32.10
76827;BME280;65788;52.284;20.890;2023-03-04T07:38:53;99670.00;;;18.52;32.00
76827;BME280;65788;52.284;20.890;2023-03-04T07:41:21;99664.02;;;18.53;31.95
76827;BME280;65788;52.284;20.890;2023-03-04T07:43:48;99660.20;;;18.52;31.93
76827;BME280;65788;52.284;20.890;2023-03-04T07:46:16;99660.02;;;18.56;31.91
76827;BME280;65788;52.284;20.890;2023-03-04T07:48:45;99660.67;;;18.58;31.82
76827;BME280;65788;52.284;20.890;2023-03-04T07:53:41;99655.00;;;18.61;31.74
76827;BME280;65788;52.284;20.890;2023-03-04T07:56:10;99656.34;;;18.63;31.66
76827;BME280;65788;52.284;20.890;2023-03-04T07:58:37;99651.86;;;18.66;31.55
76827;BME280;65788;52.284;20.890;2023-03-04T08:01:08;99651.23;;;18.63;31.56
76827;BME280;65788;52.284;20.890;2023-03-04T08:03:35;99649.29;;;18.63;31.58
76827;BME280;65788;52.284;20.890;2023-03-04T08:06:04;99643.86;;;18.65;31.65
76827;BME280;65788;52.284;20.890;2023-03-04T08:08:31;99648.59;;;18.70;31.46
76827;BME280;65788;52.284;20.890;2023-03-04T08:10:58;99647.55;;;18.69;31.23
76827;BME280;65788;52.284;20.890;2023-03-04T08:13:26;99642.38;;;18.66;31.44
76827;BME280;65788;52.284;20.890;2023-03-04T08:15:54;99638.45;;;18.66;31.42
76827;BME280;65788;52.284;20.890;2023-03-04T08:18:22;99638.46;;;18.69;31.38
76827;BME280;65788;52.284;20.890;2023-03-04T08:20:49;99639.64;;;18.71;31.31
76827;BME280;65788;52.284;20.890;2023-03-04T08:23:16;99638.30;;;18.69;31.30
76827;BME280;65788;52.284;20.890;2023-03-04T08:25:43;99638.29;;;18.72;31.21
76827;BME280;65788;52.284;20.890;2023-03-04T08:28:11;99632.87;;;18.75;31.12
76827;BME280;65788;52.284;20.890;2023-03-04T08:30:41;99637.41;;;18.77;31.07
76827;BME280;65788;52.284;20.890;2023-03-04T08:33:09;99636.10;;;18.76;31.02
76827;BME280;65788;52.284;20.890;2023-03-04T08:35:37;99630.70;;;18.78;30.90
76827;BME280;65788;52.284;20.890;2023-03-04T08:38:05;99636.69;;;18.79;30.84
76827;BME280;65788;52.284;20.890;2023-03-04T08:40:32;99626.19;;;18.81;30.81
76827;BME280;65788;52.284;20.890;2023-03-04T08:42:59;99633.46;;;18.81;31.42
76827;BME280;65788;52.284;20.890;2023-03-04T08:45:26;99626.48;;;18.99;32.65
76827;BME280;65788;52.284;20.890;2023-03-04T08:47:54;99622.23;;;19.14;32.48
76827;BME280;65788;52.284;20.890;2023-03-04T08:50:22;99621.41;;;19.23;32.56
76827;BME280;65788;52.284;20.890;2023-03-04T08:52:50;99621.60;;;19.34;32.95
76827;BME280;65788;52.284;20.890;2023-03-04T08:55:17;99616.52;;;19.49;33.32
76827;BME280;65788;52.284;20.890;2023-03-04T08:57:46;99614.50;;;19.51;32.98
76827;BME280;65788;52.284;20.890;2023-03-04T09:00:13;99613.76;;;19.59;33.29
76827;BME280;65788;52.284;20.890;2023-03-04T09:02:43;99606.40;;;19.71;32.67
76827;BME280;65788;52.284;20.890;2023-03-04T09:05:10;99603.60;;;19.72;32.14
76827;BME280;65788;52.284;20.890;2023-03-04T09:07:37;99603.80;;;19.81;32.65
76827;BME280;65788;52.284;20.890;2023-03-04T09:10:14;99600.99;;;19.89;32.23
76827;BME280;65788;52.284;20.890;2023-03-04T09:12:41;99596.04;;;19.99;31.72
76827;BME280;65788;52.284;20.890;2023-03-04T09:15:08;99594.27;;;20.00;31.86
76827;BME280;65788;52.284;20.890;2023-03-04T09:17:36;99585.55;;;20.00;32.00
76827;BME280;65788;52.284;20.890;2023-03-04T09:20:04;99588.10;;;19.97;31.16
76827;BME280;65788;52.284;20.890;2023-03-04T09:22:31;99582.77;;;19.84;30.42
76827;BME280;65788;52.284;20.890;2023-03-04T09:24:58;99590.45;;;19.72;30.60
76827;BME280;65788;52.284;20.890;2023-03-04T09:27:25;99591.42;;;19.66;30.73
76827;BME280;65788;52.284;20.890;2023-03-04T09:29:52;99589.73;;;19.67;30.68
76827;BME280;65788;52.284;20.890;2023-03-04T09:32:19;99591.63;;;19.63;30.72
76827;BME280;65788;52.284;20.890;2023-03-04T09:34:47;99588.05;;;19.59;30.67
76827;BME280;65788;52.284;20.890;2023-03-04T09:37:14;99591.98;;;19.59;30.65
76827;BME280;65788;52.284;20.890;2023-03-04T09:39:42;99590.52;;;19.57;30.61
76827;BME280;65788;52.284;20.890;2023-03-04T09:42:10;99586.46;;;19.55;30.62
76827;BME280;65788;52.284;20.890;2023-03-04T09:44:43;99580.52;;;19.53;30.59
76827;BME280;65788;52.284;20.890;2023-03-04T09:47:13;99579.46;;;19.57;30.54
76827;BME280;65788;52.284;20.890;2023-03-04T09:49:43;99578.59;;;19.56;30.59
76827;BME280;65788;52.284;20.890;2023-03-04T09:52:20;99579.05;;;19.61;30.56
76827;BME280;65788;52.284;20.890;2023-03-04T10:05:30;99568.36;;;19.65;30.51
76827;BME280;65788;52.284;20.890;2023-03-04T10:07:58;99567.01;;;19.64;30.32
76827;BME280;65788;52.284;20.890;2023-03-04T10:10:29;99564.92;;;19.60;30.60
76827;BME280;65788;52.284;20.890;2023-03-04T10:12:57;99559.63;;;19.56;30.60
76827;BME280;65788;52.284;20.890;2023-03-04T10:15:30;99556.80;;;19.57;30.58
76827;BME280;65788;52.284;20.890;2023-03-04T10:18:18;99551.55;;;19.61;30.56
76827;BME280;65788;52.284;20.890;2023-03-04T10:20:53;99548.19;;;19.67;30.46
76827;BME280;65788;52.284;20.890;2023-03-04T10:23:23;99554.46;;;19.69;30.38
76827;BME280;65788;52.284;20.890;2023-03-04T10:25:52;99547.55;;;19.71;30.38
76827;BME280;65788;52.284;20.890;2023-03-04T10:28:25;99539.69;;;19.71;30.28
76827;BME280;65788;52.284;20.890;2023-03-04T10:33:40;99531.95;;;19.68;30.27
76827;BME280;65788;52.284;20.890;2023-03-04T10:36:31;99530.55;;;19.70;30.23
76827;BME280;65788;52.284;20.890;2023-03-04T10:39:21;99528.77;;;19.70;30.24
76827;BME280;65788;52.284;20.890;2023-03-04T10:44:43;99525.02;;;19.74;30.16
76827;BME280;65788;52.284;20.890;2023-03-04T10:47:17;99522.00;;;19.76;30.12
76827;BME280;65788;52.284;20.890;2023-03-04T10:49:52;99516.27;;;19.83;29.98
76827;BME280;65788;52.284;20.890;2023-03-04T10:54:57;99513.02;;;19.79;29.92
76827;BME280;65788;52.284;20.890;2023-03-04T10:57:39;99512.86;;;19.80;29.85
76827;BME280;65788;52.284;20.890;2023-03-04T11:02:43;99505.79;;;19.79;29.90
76827;BME280;65788;52.284;20.890;2023-03-04T11:05:21;99505.49;;;19.78;29.91
76827;BME280;65788;52.284;20.890;2023-03-04T11:07:57;99507.67;;;19.79;29.89
76827;BME280;65788;52.284;20.890;2023-03-04T11:10:28;99501.02;;;19.81;29.84
76827;BME280;65788;52.284;20.890;2023-03-04T11:21:06;99500.31;;;19.81;29.65
76827;BME280;65788;52.284;20.890;2023-03-04T11:23:44;99497.70;;;19.80;29.64
76827;BME280;65788;52.284;20.890;2023-03-04T11:26:17;99494.59;;;19.84;30.28
76827;BME280;65788;52.284;20.890;2023-03-04T11:28:51;99496.79;;;20.20;31.45
76827;BME280;65788;52.284;20.890;2023-03-04T11:31:21;99495.39;;;20.11;31.53
76827;BME280;65788;52.284;20.890;2023-03-04T11:33:58;99492.70;;;20.16;31.35
76827;BME280;65788;52.284;20.890;2023-03-04T11:36:30;99487.59;;;20.15;31.35
76827;BME280;65788;52.284;20.890;2023-03-04T11:39:00;99489.57;;;20.21;31.25
76827;BME280;65788;52.284;20.890;2023-03-04T11:41:29;99488.45;;;20.29;30.90
76827;BME280;65788;52.284;20.890;2023-03-04T11:43:58;99486.36;;;20.24;31.23
76827;BME280;65788;52.284;20.890;2023-03-04T12:00:15;99485.77;;;20.42;30.24
76827;BME280;65788;52.284;20.890;2023-03-04T12:16:04;99492.40;;;20.49;29.93
76827;BME280;65788;52.284;20.890;2023-03-04T12:21:27;99495.85;;;20.32;29.40
76827;BME280;65788;52.284;20.890;2023-03-04T12:29:16;99491.79;;;20.14;29.27
76827;BME280;65788;52.284;20.890;2023-03-04T12:39:31;99474.36;;;20.16;29.48
76827;BME280;65788;52.284;20.890;2023-03-04T12:44:38;99471.76;;;20.16;29.52
76827;BME280;65788;52.284;20.890;2023-03-04T12:47:20;99474.73;;;20.18;29.51
76827;BME280;65788;52.284;20.890;2023-03-04T12:55:13;99474.73;;;20.14;29.76
76827;BME280;65788;52.284;20.890;2023-03-04T12:57:41;99479.14;;;20.09;29.83
76827;BME280;65788;52.284;20.890;2023-03-04T13:02:44;99470.08;;;20.00;30.06
76827;BME280;65788;52.284;20.890;2023-03-04T13:10:48;99460.51;;;20.08;30.14
76827;BME280;65788;52.284;20.890;2023-03-04T13:18:39;99450.64;;;20.16;30.32
76827;BME280;65788;52.284;20.890;2023-03-04T13:23:33;99459.48;;;20.19;30.42
76827;BME280;65788;52.284;20.890;2023-03-04T13:28:34;99459.19;;;20.11;30.78
76827;BME280;65788;52.284;20.890;2023-03-04T13:36:02;99502.44;;;19.98;30.72
76827;BME280;65788;52.284;20.890;2023-03-04T13:38:34;99530.50;;;19.97;30.73
76827;BME280;65788;52.284;20.890;2023-03-04T13:41:17;99525.30;;;19.92;30.92
76827;BME280;65788;52.284;20.890;2023-03-04T13:51:34;99490.59;;;19.84;31.71
76827;BME280;65788;52.284;20.890;2023-03-04T13:54:41;99480.18;;;19.82;31.89
76827;BME280;65788;52.284;20.890;2023-03-04T13:57:10;99478.19;;;19.78;32.09
76827;BME280;65788;52.284;20.890;2023-03-04T13:59:48;99473.48;;;19.79;32.19
76827;BME280;65788;52.284;20.890;2023-03-04T14:02:20;99461.98;;;19.81;32.20
76827;BME280;65788;52.284;20.890;2023-03-04T14:04:58;99456.47;;;19.87;32.14
76827;BME280;65788;52.284;20.890;2023-03-04T14:07:27;99459.64;;;19.91;32.11
76827;BME280;65788;52.284;20.890;2023-03-04T14:12:26;99466.17;;;19.96;31.95
76827;BME280;65788;52.284;20.890;2023-03-04T14:15:02;99463.78;;;19.98;31.88
76827;BME280;65788;52.284;20.890;2023-03-04T14:17:34;99461.77;;;19.98;31.95
76827;BME280;65788;52.284;20.890;2023-03-04T14:20:06;99459.70;;;19.97;31.89
76827;BME280;65788;52.284;20.890;2023-03-04T14:22:47;99470.30;;;19.97;32.08
76827;BME280;65788;52.284;20.890;2023-03-04T14:25:33;99463.60;;;19.98;32.35
76827;BME280;65788;52.284;20.890;2023-03-04T14:28:08;99466.08;;;19.99;32.41
76827;BME280;65788;52.284;20.890;2023-03-04T14:30:37;99473.68;;;20.00;33.07
76827;BME280;65788;52.284;20.890;2023-03-04T14:33:10;99470.27;;;20.01;32.82
76827;BME280;65788;52.284;20.890;2023-03-04T14:35:39;99481.50;;;20.04;32.72
76827;BME280;65788;52.284;20.890;2023-03-04T14:38:15;99474.72;;;20.07;32.68
76827;BME280;65788;52.284;20.890;2023-03-04T14:40:44;99472.81;;;20.07;32.61
76827;BME280;65788;52.284;20.890;2023-03-04T14:43:15;99474.85;;;20.08;32.51
76827;BME280;65788;52.284;20.890;2023-03-04T14:45:44;99474.05;;;20.11;32.41
76827;BME280;65788;52.284;20.890;2023-03-04T14:48:20;99475.86;;;20.12;32.26
76827;BME280;65788;52.284;20.890;2023-03-04T14:50:52;99479.44;;;20.11;32.20
76827;BME280;65788;52.284;20.890;2023-03-04T14:53:20;99477.27;;;20.08;32.22
76827;BME280;65788;52.284;20.890;2023-03-04T14:56:04;99484.08;;;20.05;32.22
76827;BME280;65788;52.284;20.890;2023-03-04T14:58:32;99488.33;;;20.05;32.29
76827;BME280;65788;52.284;20.890;2023-03-04T15:01:13;99495.23;;;20.02;31.96